Castle Rock, WA (98611)

8:15 AM PST on December 20, 2014 (GMT -0800)
HomeSweetHome | Change Station
CLOSE
Current Station
Personal Weather Station
Location: Castle Rock, WA
Elevation: 650 ft
Nearby Weather Stations
Active Advisory: Areal Flood Watch

Elev 650 ft 46.31 °N, 122.85 °W | Updated 1 second ago

Mostly Cloudy
Mostly Cloudy
48.7 °F
Feels Like 42 °F
N
21.9
Wind Variable Wind from SSW
Gusts 23.0 mph

Today
High -- | Low -- °F
--% Chance of Precip.
Yesterday
High -- | Low -- °F
Precip. -- in
7:51 AM 4:27 PM
Waning Crescent, 3% visible
Pressure 29.68 in
Visibility 10.0 miles
Clouds Mostly Cloudy 1700 ft
Overcast 2400 ft
Windchill 42 °F
Dew Point 47 °F
Humidity 95%
Rainfall 0.23 in
Snow Depth Not available.
UV 0 out of 12
Pollen .50 out of 12
Air Quality Not available.
Flu Activity Not available.
METAR KKLS 201555Z 15011G23KT 10SM BKN017 OVC024 09/06 A2968 RMK AO1 P0001

More Conditions Fewer Conditions

Pressure 29.68 in
Visibility 10.0 miles
Clouds Mostly Cloudy 1700 ft
Overcast 2400 ft
Windchill 42 °F
Dew Point 47 °F
Humidity 95%
Rainfall 0.23 in
Snow Depth Not available.
UV 0 out of 12
Pollen .50 out of 12
Air Quality Not available.
Flu Activity Not available.
METAR KKLS 201555Z 15011G23KT 10SM BKN017 OVC024 09/06 A2968 RMK AO1 P0001

More Conditions Fewer Conditions

10-Day Weather Forecast

Almanac

Astronomy

Dec. 20, 2014 Rise Set
Actual Time
Civil Twilight
Nautical Twilight
Astronomical Twilight
Moon
Length of Visible Light
Length of Day
Tomorrow will be .
, % of the Moon is Illuminated

Today's Extremes

State Highs State Lows

Community

WunderPhotos

Upload Photos

1,779,212 photos uploaded!

WunderBlogs® & News

Nearby

Air Quality

  Air Quality AQ Index Pollutant
Not available.

Snow Depth

Station Depth Elevation

Earthquake Activity

City Distance Mag. Time & Date
Minimum magnitude displayed is 2.5.

Coastal Water Temperatures

Place Temperature

Nearby Weather Stations